Wetterdaten: Sonntag, 18.11.2012
Datum Zeit Temperatur Luftfeuchte Regen Wind Richtung Richtung Taupunkt Windchill Windben
18.11.2012 00:00 -2,0 C 91 % 0,0 l/m 0,0 km/h (0 Bft) SO 135 -3,3 C -2,6 C 0,0 km/h (0 Bft)
18.11.2012 00:05 -2,1 C 91 % 0,0 l/m 0,0 km/h (0 Bft) S 180 -3,4 C -2,7 C 0,0 km/h (0 Bft)
18.11.2012 00:10 -2,0 C 91 % 0,0 l/m 0,0 km/h (0 Bft) NW 315 -3,3 C -2,7 C 0,0 km/h (0 Bft)
18.11.2012 00:15 -1,8 C 91 % 0,0 l/m 0,0 km/h (0 Bft) N-NW 337 -3,1 C -2,7 C 0,0 km/h (0 Bft)
18.11.2012 00:20 -2,0 C 91 % 0,0 l/m 0,0 km/h (0 Bft) N 360 -3,3 C -2,8 C 0,0 km/h (0 Bft)
18.11.2012 00:25 -2,2 C 91 % 0,0 l/m 0,0 km/h (0 Bft) N-NO 22 -3,5 C -2,8 C 0,0 km/h (0 Bft)
18.11.2012 00:30 -1,9 C 91 % 0,0 l/m 0,2 km/h (0 Bft) N-NW 337 -3,2 C -2,8 C 2,6 km/h (1 Bft)
18.11.2012 00:35 -2,1 C 91 % 0,0 l/m 0,2 km/h (0 Bft) N-NO 22 -3,4 C -2,7 C 0,0 km/h (0 Bft)
18.11.2012 00:40 -2,3 C 91 % 0,0 l/m 0,0 km/h (0 Bft) N-NO 22 -3,6 C -2,7 C 0,0 km/h (0 Bft)
18.11.2012 00:45 -2,0 C 91 % 0,0 l/m 0,0 km/h (0 Bft) N-NO 22 -3,3 C -2,7 C 0,0 km/h (0 Bft)
18.11.2012 00:50 -1,9 C 91 % 0,0 l/m 0,0 km/h (0 Bft) N-NO 22 -3,2 C -2,6 C 0,0 km/h (0 Bft)
18.11.2012 00:55 -1,9 C 91 % 0,0 l/m 0,0 km/h (0 Bft) N-NO 22 -3,2 C -2,6 C 0,0 km/h (0 Bft)
18.11.2012 01:00 -2,0 C 91 % 0,0 l/m 0,0 km/h (0 Bft) SO 135 -3,3 C -2,6 C 0,0 km/h (0 Bft)
18.11.2012 01:05 -2,2 C 91 % 0,0 l/m 0,0 km/h (0 Bft) SO 135 -3,5 C -2,8 C 0,0 km/h (0 Bft)
18.11.2012 01:10 -2,2 C 91 % 0,0 l/m 0,0 km/h (0 Bft) SO 135 -3,5 C -2,9 C 0,0 km/h (0 Bft)
18.11.2012 01:15 -2,2 C 91 % 0,0 l/m 0,0 km/h (0 Bft) SO 135 -3,5 C -3,0 C 0,0 km/h (0 Bft)
18.11.2012 01:20 -2,1 C 91 % 0,0 l/m 0,0 km/h (0 Bft) SO 135 -3,4 C -3,1 C 0,0 km/h (0 Bft)
18.11.2012 01:25 -2,2 C 91 % 0,0 l/m 0,0 km/h (0 Bft) S-SO 157 -3,5 C -3,1 C 0,0 km/h (0 Bft)
18.11.2012 01:30 -1,9 C 92 % 0,0 l/m 0,0 km/h (0 Bft) NO 45 -3,0 C -2,8 C 0,0 km/h (0 Bft)
18.11.2012 01:35 -1,9 C 92 % 0,0 l/m 0,0 km/h (0 Bft) NO 45 -3,0 C -2,8 C 0,0 km/h (0 Bft)
18.11.2012 01:40 -2,1 C 92 % 0,0 l/m 0,0 km/h (0 Bft) O 90 -3,2 C -2,9 C 0,0 km/h (0 Bft)
18.11.2012 01:45 -1,9 C 92 % 0,0 l/m 0,0 km/h (0 Bft) O 90 -3,0 C -2,9 C 0,0 km/h (0 Bft)
18.11.2012 01:50 -2,0 C 92 % 0,0 l/m 0,0 km/h (0 Bft) NO 45 -3,1 C -2,9 C 0,0 km/h (0 Bft)
18.11.2012 01:55 -2,1 C 92 % 0,0 l/m 0,0 km/h (0 Bft) NO 45 -3,2 C -2,8 C 0,0 km/h (0 Bft)
18.11.2012 02:00 -1,9 C 92 % 0,0 l/m 0,0 km/h (0 Bft) SO 135 -3,0 C -2,8 C 0,0 km/h (0 Bft)
18.11.2012 02:05 -1,7 C 92 % 0,0 l/m 0,0 km/h (0 Bft) NO 45 -2,8 C -2,9 C 0,0 km/h (0 Bft)
18.11.2012 02:10 -1,7 C 92 % 0,0 l/m 0,0 km/h (0 Bft) N-NO 22 -2,8 C -2,7 C 0,0 km/h (0 Bft)
18.11.2012 02:15 -1,9 C 92 % 0,0 l/m 0,0 km/h (0 Bft) N-NO 22 -3,0 C -2,6 C 0,0 km/h (0 Bft)
18.11.2012 02:20 -2,1 C 91 % 0,0 l/m 0,0 km/h (0 Bft) N-NO 22 -3,4 C -2,7 C 0,0 km/h (0 Bft)
18.11.2012 02:25 -2,1 C 91 % 0,0 l/m 0,0 km/h (0 Bft) N-NO 22 -3,4 C -2,6 C 0,0 km/h (0 Bft)
18.11.2012 02:30 -2,3 C 91 % 0,0 l/m 0,0 km/h (0 Bft) NO 45 -3,6 C -2,7 C 0,0 km/h (0 Bft)
18.11.2012 02:35 -2,2 C 91 % 0,0 l/m 0,0 km/h (0 Bft) NO 45 -3,5 C -2,7 C 0,0 km/h (0 Bft)
18.11.2012 02:40 -1,9 C 92 % 0,0 l/m 0,0 km/h (0 Bft) N-NO 22 -3,0 C -2,7 C 1,6 km/h (1 Bft)
18.11.2012 02:45 -1,5 C 92 % 0,0 l/m 0,2 km/h (0 Bft) S-SW 202 -2,6 C -2,4 C 0,0 km/h (0 Bft)
18.11.2012 02:50 -1,3 C 92 % 0,0 l/m 0,6 km/h (0 Bft) NO 45 -2,4 C -2,1 C 3,4 km/h (1 Bft)
18.11.2012 02:55 -0,9 C 92 % 0,0 l/m 0,6 km/h (0 Bft) S 180 -2,0 C -1,9 C 0,0 km/h (0 Bft)
18.11.2012 03:00 -0,9 C 92 % 0,0 l/m 0,3 km/h (0 Bft) W-NW 292 -2,0 C -1,6 C 0,0 km/h (0 Bft)
18.11.2012 03:05 -0,7 C 92 % 0,0 l/m 0,3 km/h (0 Bft) W 270 -1,8 C -1,5 C 0,0 km/h (0 Bft)
18.11.2012 03:10 -0,8 C 92 % 0,0 l/m 0,0 km/h (0 Bft) W-SW 247 -1,9 C -1,4 C 0,0 km/h (0 Bft)
18.11.2012 03:15 -0,7 C 92 % 0,0 l/m 0,0 km/h (0 Bft) N-NW 337 -1,8 C -1,4 C 0,0 km/h (0 Bft)
18.11.2012 03:20 -0,6 C 91 % 0,0 l/m 0,0 km/h (0 Bft) N-NW 337 -1,9 C -1,3 C 0,0 km/h (0 Bft)
18.11.2012 03:25 -0,5 C 91 % 0,0 l/m 0,0 km/h (0 Bft) W-NW 292 -1,8 C -1,2 C 0,0 km/h (0 Bft)
18.11.2012 03:30 -0,5 C 91 % 0,0 l/m 0,0 km/h (0 Bft) W-NW 292 -1,8 C -1,1 C 0,0 km/h (0 Bft)
18.11.2012 03:35 -0,3 C 91 % 0,0 l/m 0,0 km/h (0 Bft) N-NW 337 -1,6 C -1,1 C 0,0 km/h (0 Bft)
18.11.2012 03:40 -0,4 C 91 % 0,0 l/m 0,0 km/h (0 Bft) N-NW 337 -1,7 C -1,0 C 0,0 km/h (0 Bft)
18.11.2012 03:45 -0,1 C 91 % 0,0 l/m 0,0 km/h (0 Bft) N-NW 337 -1,4 C -1,0 C 0,0 km/h (0 Bft)
18.11.2012 03:50 -0,4 C 90 % 0,0 l/m 0,0 km/h (0 Bft) S 180 -1,8 C -1,0 C 0,0 km/h (0 Bft)
18.11.2012 03:55 -0,3 C 90 % 0,0 l/m 0,0 km/h (0 Bft) W-NW 292 -1,7 C -1,1 C 0,0 km/h (0 Bft)
18.11.2012 04:00 -0,6 C 90 % 0,0 l/m 0,0 km/h (0 Bft) W 270 -2,0 C -1,1 C 0,0 km/h (0 Bft)
18.11.2012 04:05 -0,9 C 90 % 0,0 l/m 0,0 km/h (0 Bft) W-SW 247 -2,3 C -1,2 C 0,0 km/h (0 Bft)
18.11.2012 04:10 -0,8 C 90 % 0,0 l/m 0,0 km/h (0 Bft) S-SO 157 -2,2 C -1,3 C 1,6 km/h (1 Bft)
18.11.2012 04:15 -0,9 C 90 % 0,0 l/m 0,2 km/h (0 Bft) N-NO 22 -2,3 C -1,5 C 0,0 km/h (0 Bft)
18.11.2012 04:20 -0,3 C 90 % 0,0 l/m 0,2 km/h (0 Bft) NW 315 -1,7 C -1,5 C 0,0 km/h (0 Bft)
18.11.2012 04:25 -0,3 C 90 % 0,0 l/m 0,0 km/h (0 Bft) N 360 -1,7 C -1,4 C 0,0 km/h (0 Bft)
18.11.2012 04:30 0,0 C 89 % 0,0 l/m 0,2 km/h (0 Bft) N 360 -1,6 C -1,3 C 0,0 km/h (0 Bft)
18.11.2012 04:35 0,1 C 89 % 0,0 l/m 0,2 km/h (0 Bft) N 360 -1,5 C -1,1 C 0,0 km/h (0 Bft)
18.11.2012 04:40 -0,5 C 89 % 0,0 l/m 0,2 km/h (0 Bft) S-SO 157 -2,1 C -1,1 C 0,0 km/h (0 Bft)
18.11.2012 04:45 -0,7 C 89 % 0,0 l/m 0,3 km/h (0 Bft) O-SO 112 -2,3 C -1,2 C 2,9 km/h (1 Bft)
18.11.2012 04:50 -1,1 C 89 % 0,0 l/m 0,5 km/h (0 Bft) SO 135 -2,7 C -1,5 C 0,0 km/h (0 Bft)
18.11.2012 04:55 -1,2 C 88 % 0,0 l/m 0,6 km/h (0 Bft) O 90 -2,9 C -1,5 C 0,0 km/h (0 Bft)
18.11.2012 05:00 -1,1 C 89 % 0,0 l/m 0,3 km/h (0 Bft) NO 45 -2,7 C -1,5 C 0,0 km/h (0 Bft)
18.11.2012 05:05 -1,3 C 89 % 0,0 l/m 0,0 km/h (0 Bft) SO 135 -2,9 C -1,6 C 0,0 km/h (0 Bft)
18.11.2012 05:10 -1,1 C 89 % 0,0 l/m 0,0 km/h (0 Bft) S-SO 157 -2,7 C -1,6 C 0,0 km/h (0 Bft)
18.11.2012 05:15 -0,8 C 89 % 0,0 l/m 0,0 km/h (0 Bft) S 180 -2,4 C -1,5 C 2,3 km/h (1 Bft)
18.11.2012 05:20 -0,9 C 89 % 0,0 l/m 0,0 km/h (0 Bft) SO 135 -2,5 C -1,4 C 0,0 km/h (0 Bft)
18.11.2012 05:25 -1,1 C 89 % 0,0 l/m 0,2 km/h (0 Bft) O-SO 112 -2,7 C -1,5 C 0,0 km/h (0 Bft)
18.11.2012 05:30 -1,2 C 89 % 0,0 l/m 0,0 km/h (0 Bft) O 90 -2,8 C -1,6 C 0,0 km/h (0 Bft)
18.11.2012 05:35 -1,0 C 89 % 0,0 l/m 0,0 km/h (0 Bft) S 180 -2,6 C -1,6 C 0,0 km/h (0 Bft)
18.11.2012 05:40 -0,5 C 89 % 0,0 l/m 0,0 km/h (0 Bft) S-SO 157 -2,1 C -1,5 C 0,0 km/h (0 Bft)
18.11.2012 05:45 -0,7 C 89 % 0,0 l/m 0,0 km/h (0 Bft) O 90 -2,3 C -1,4 C 0,0 km/h (0 Bft)
18.11.2012 05:50 -0,7 C 89 % 0,0 l/m 0,0 km/h (0 Bft) SO 135 -2,3 C -1,4 C 0,0 km/h (0 Bft)
18.11.2012 05:55 -0,7 C 89 % 0,0 l/m 0,0 km/h (0 Bft) SO 135 -2,3 C -1,4 C 0,0 km/h (0 Bft)
18.11.2012 06:00 -0,7 C 89 % 0,0 l/m 0,0 km/h (0 Bft) SO 135 -2,3 C -1,4 C 0,0 km/h (0 Bft)
18.11.2012 06:05 -0,8 C 89 % 0,0 l/m 0,0 km/h (0 Bft) SO 135 -2,4 C -1,4 C 0,0 km/h (0 Bft)
18.11.2012 06:10 -1,1 C 89 % 0,0 l/m 0,0 km/h (0 Bft) NO 45 -2,7 C -1,5 C 0,0 km/h (0 Bft)
18.11.2012 06:15 -0,9 C 89 % 0,0 l/m 0,2 km/h (0 Bft) S-SW 202 -2,5 C -1,3 C 2,6 km/h (1 Bft)
18.11.2012 06:20 0,0 C 89 % 0,0 l/m 0,5 km/h (0 Bft) W 270 -1,6 C -0,4 C 0,0 km/h (0 Bft)
18.11.2012 06:25 0,4 C 89 % 0,0 l/m 0,5 km/h (0 Bft) W-SW 247 -1,2 C 0,2 C 4,3 km/h (1 Bft)
18.11.2012 06:30 0,7 C 90 % 0,0 l/m 0,6 km/h (0 Bft) N-NW 337 -0,7 C 0,8 C 0,0 km/h (0 Bft)
18.11.2012 06:35 0,8 C 89 % 0,0 l/m 0,8 km/h (0 Bft) SO 135 -0,8 C 1,1 C 0,0 km/h (0 Bft)
18.11.2012 06:40 0,9 C 89 % 0,0 l/m 0,2 km/h (0 Bft) S 180 -0,7 C 1,1 C 0,0 km/h (0 Bft)
18.11.2012 06:45 0,8 C 89 % 0,0 l/m 0,0 km/h (0 Bft) S-SW 202 -0,8 C 1,0 C 0,0 km/h (0 Bft)
18.11.2012 06:50 0,9 C 88 % 0,0 l/m 0,3 km/h (0 Bft) S 180 -0,9 C 0,8 C 1,6 km/h (1 Bft)
18.11.2012 06:55 0,6 C 87 % 0,0 l/m 0,5 km/h (0 Bft) SW 225 -1,3 C 0,7 C 2,6 km/h (1 Bft)
18.11.2012 07:00 0,4 C 87 % 0,0 l/m 0,5 km/h (0 Bft) S 180 -1,5 C 0,8 C 0,0 km/h (0 Bft)
18.11.2012 07:05 0,5 C 87 % 0,0 l/m 0,5 km/h (0 Bft) S 180 -1,4 C 0,8 C 0,0 km/h (0 Bft)
18.11.2012 07:10 0,5 C 86 % 0,0 l/m 0,2 km/h (0 Bft) NO 45 -1,6 C 0,8 C 0,0 km/h (0 Bft)
18.11.2012 07:15 0,7 C 86 % 0,0 l/m 0,0 km/h (0 Bft) S-SW 202 -1,4 C 0,9 C 0,0 km/h (0 Bft)
18.11.2012 07:20 0,9 C 86 % 0,0 l/m 0,2 km/h (0 Bft) S-SW 202 -1,2 C 1,1 C 0,0 km/h (0 Bft)
18.11.2012 07:25 0,9 C 86 % 0,0 l/m 0,2 km/h (0 Bft) S 180 -1,2 C 1,1 C 3,2 km/h (1 Bft)
18.11.2012 07:30 0,9 C 86 % 0,0 l/m 0,2 km/h (0 Bft) W-NW 292 -1,2 C 1,1 C 0,0 km/h (0 Bft)
18.11.2012 07:35 1,0 C 86 % 0,0 l/m 0,2 km/h (0 Bft) W 270 -1,1 C 1,2 C 0,0 km/h (0 Bft)
18.11.2012 07:40 0,9 C 85 % 0,0 l/m 0,0 km/h (0 Bft) W-SW 247 -1,3 C 1,2 C 0,0 km/h (0 Bft)
18.11.2012 07:45 1,2 C 85 % 0,0 l/m 0,0 km/h (0 Bft) W 270 -1,0 C 1,3 C 0,0 km/h (0 Bft)
18.11.2012 07:50 1,2 C 85 % 0,0 l/m 0,0 km/h (0 Bft) S 180 -1,0 C 1,4 C 0,0 km/h (0 Bft)
18.11.2012 07:55 1,1 C 84 % 0,0 l/m 0,0 km/h (0 Bft) S 180 -1,3 C 1,4 C 0,0 km/h (0 Bft)
18.11.2012 08:00 1,2 C 84 % 0,0 l/m 0,0 km/h (0 Bft) S 180 -1,2 C 1,4 C 0,0 km/h (0 Bft)
18.11.2012 08:05 1,1 C 84 % 0,0 l/m 0,0 km/h (0 Bft) S 180 -1,3 C 1,3 C 0,0 km/h (0 Bft)
18.11.2012 08:10 1,2 C 83 % 0,0 l/m 0,0 km/h (0 Bft) S 180 -1,4 C 1,4 C 0,0 km/h (0 Bft)
18.11.2012 08:15 1,1 C 83 % 0,0 l/m 0,0 km/h (0 Bft) S 180 -1,5 C 1,4 C 0,0 km/h (0 Bft)
18.11.2012 08:20 1,1 C 83 % 0,0 l/m 0,0 km/h (0 Bft) S-SO 157 -1,5 C 1,4 C 0,0 km/h (0 Bft)
18.11.2012 08:25 1,1 C 83 % 0,0 l/m 0,0 km/h (0 Bft) SW 225 -1,5 C 1,4 C 0,0 km/h (0 Bft)
18.11.2012 08:30 1,4 C 83 % 0,0 l/m 0,0 km/h (0 Bft) S 180 -1,2 C 1,6 C 0,0 km/h (0 Bft)
18.11.2012 08:35 1,4 C 83 % 0,0 l/m 0,0 km/h (0 Bft) N 360 -1,2 C 1,7 C 0,0 km/h (0 Bft)
18.11.2012 08:40 1,5 C 83 % 0,0 l/m 0,0 km/h (0 Bft) SW 225 -1,1 C 1,9 C 0,0 km/h (0 Bft)
18.11.2012 08:45 1,7 C 83 % 0,0 l/m 0,0 km/h (0 Bft) SW 225 -0,9 C 2,2 C 0,0 km/h (0 Bft)
18.11.2012 08:50 2,0 C 82 % 0,0 l/m 0,0 km/h (0 Bft) S-SO 157 -0,7 C 2,5 C 0,0 km/h (0 Bft)
18.11.2012 08:55 2,0 C 82 % 0,0 l/m 0,0 km/h (0 Bft) S 180 -0,7 C 2,6 C 0,0 km/h (0 Bft)
18.11.2012 09:00 2,5 C 82 % 0,0 l/m 0,0 km/h (0 Bft) O-NO 67 -0,3 C 2,9 C 0,0 km/h (0 Bft)
18.11.2012 09:05 2,5 C 82 % 0,0 l/m 0,0 km/h (0 Bft) O-NO 67 -0,3 C 3,1 C 0,0 km/h (0 Bft)
18.11.2012 09:10 2,7 C 81 % 0,0 l/m 0,0 km/h (0 Bft) O-NO 67 -0,2 C 3,4 C 0,0 km/h (0 Bft)
18.11.2012 09:15 2,8 C 81 % 0,0 l/m 0,0 km/h (0 Bft) NO 45 -0,1 C 3,6 C 0,0 km/h (0 Bft)
18.11.2012 09:20 3,0 C 79 % 0,0 l/m 0,0 km/h (0 Bft) O 90 -0,3 C 3,8 C 0,0 km/h (0 Bft)
18.11.2012 09:25 3,3 C 79 % 0,0 l/m 0,0 km/h (0 Bft) W-SW 247 0,0 C 4,0 C 0,0 km/h (0 Bft)
18.11.2012 09:30 3,9 C 78 % 0,0 l/m 0,0 km/h (0 Bft) S-SO 157 0,4 C 4,4 C 0,0 km/h (0 Bft)
18.11.2012 09:35 3,8 C 78 % 0,0 l/m 0,0 km/h (0 Bft) S-SO 157 0,3 C 4,7 C 0,0 km/h (0 Bft)
18.11.2012 09:40 4,2 C 77 % 0,0 l/m 0,0 km/h (0 Bft) W-SW 247 0,5 C 5,1 C 0,0 km/h (0 Bft)
18.11.2012 09:45 4,3 C 76 % 0,0 l/m 0,0 km/h (0 Bft) W-SW 247 0,5 C 5,4 C 0,0 km/h (0 Bft)
18.11.2012 09:50 4,3 C 76 % 0,0 l/m 0,0 km/h (0 Bft) W-SW 247 0,5 C 5,6 C 0,0 km/h (0 Bft)
18.11.2012 09:55 4,5 C 75 % 0,0 l/m 0,0 km/h (0 Bft) W-SW 247 0,5 C 5,7 C 0,0 km/h (0 Bft)
18.11.2012 10:00 4,6 C 75 % 0,0 l/m 0,2 km/h (0 Bft) W-SW 247 0,6 C 6,1 C 0,0 km/h (0 Bft)
18.11.2012 10:05 4,6 C 74 % 0,0 l/m 0,2 km/h (0 Bft) W-SW 247 0,4 C 6,3 C 0,0 km/h (0 Bft)
18.11.2012 10:10 5,0 C 74 % 0,0 l/m 0,0 km/h (0 Bft) W-SW 247 0,8 C 6,6 C 0,0 km/h (0 Bft)
18.11.2012 10:15 5,2 C 73 % 0,0 l/m 0,0 km/h (0 Bft) W-SW 247 0,8 C 7,1 C 0,0 km/h (0 Bft)
18.11.2012 10:20 5,3 C 73 % 0,0 l/m 0,0 km/h (0 Bft) W-SW 247 0,9 C 7,7 C 0,0 km/h (0 Bft)
18.11.2012 10:25 5,3 C 73 % 0,0 l/m 0,0 km/h (0 Bft) W-SW 247 0,9 C 7,8 C 0,0 km/h (0 Bft)
18.11.2012 10:30 5,5 C 73 % 0,0 l/m 0,0 km/h (0 Bft) W-SW 247 1,1 C 8,4 C 0,0 km/h (0 Bft)
18.11.2012 10:35 5,6 C 73 % 0,0 l/m 0,0 km/h (0 Bft) W-SW 247 1,2 C 9,2 C 0,0 km/h (0 Bft)
18.11.2012 10:40 5,6 C 72 % 0,0 l/m 0,0 km/h (0 Bft) W-SW 247 1,0 C 10,9 C 0,0 km/h (0 Bft)
18.11.2012 10:45 5,8 C 72 % 0,0 l/m 0,0 km/h (0 Bft) W-SW 247 1,2 C 12,0 C 0,0 km/h (0 Bft)
18.11.2012 10:50 6,1 C 70 % 0,0 l/m 0,0 km/h (0 Bft) W-SW 247 1,0 C 12,6 C 0,0 km/h (0 Bft)
18.11.2012 10:55 6,3 C 70 % 0,0 l/m 0,0 km/h (0 Bft) W-SW 247 1,2 C 13,1 C 0,0 km/h (0 Bft)
18.11.2012 11:00 6,7 C 70 % 0,0 l/m 0,2 km/h (0 Bft) W-SW 247 1,6 C 13,1 C 0,0 km/h (0 Bft)
18.11.2012 11:05 6,9 C 69 % 0,0 l/m 0,2 km/h (0 Bft) W-SW 247 1,6 C 13,2 C 0,0 km/h (0 Bft)
18.11.2012 11:10 7,0 C 66 % 0,0 l/m 0,0 km/h (0 Bft) W-SW 247 1,1 C 13,5 C 0,0 km/h (0 Bft)
18.11.2012 11:15 7,3 C 65 % 0,0 l/m 0,0 km/h (0 Bft) W-SW 247 1,2 C 13,9 C 0,0 km/h (0 Bft)
18.11.2012 11:20 7,4 C 64 % 0,0 l/m 0,0 km/h (0 Bft) W-SW 247 1,0 C 14,5 C 0,0 km/h (0 Bft)
18.11.2012 11:25 7,3 C 65 % 0,0 l/m 0,0 km/h (0 Bft) W-SW 247 1,2 C 14,7 C 0,0 km/h (0 Bft)
18.11.2012 11:30 7,3 C 65 % 0,0 l/m 0,0 km/h (0 Bft) S 180 1,2 C 14,9 C 0,0 km/h (0 Bft)
18.11.2012 11:35 7,4 C 65 % 0,0 l/m 0,0 km/h (0 Bft) S 180 1,3 C 15,2 C 0,0 km/h (0 Bft)
18.11.2012 11:40 7,3 C 67 % 0,0 l/m 0,5 km/h (0 Bft) SO 135 1,6 C 15,2 C 2,3 km/h (1 Bft)
18.11.2012 11:45 7,4 C 68 % 0,0 l/m 1,1 km/h (1 Bft) S-SO 157 1,9 C 14,5 C 0,0 km/h (0 Bft)
18.11.2012 11:50 7,4 C 69 % 0,0 l/m 1,3 km/h (1 Bft) S-SO 157 2,1 C 14,1 C 1,8 km/h (1 Bft)
18.11.2012 11:55 7,6 C 69 % 0,0 l/m 0,6 km/h (0 Bft) S-SO 157 2,3 C 14,4 C 0,0 km/h (0 Bft)
18.11.2012 12:00 7,8 C 68 % 0,0 l/m 0,5 km/h (0 Bft) O-SO 112 2,3 C 14,7 C 0,0 km/h (0 Bft)
18.11.2012 12:05 7,9 C 68 % 0,0 l/m 0,3 km/h (0 Bft) O-SO 112 2,4 C 14,6 C 0,0 km/h (0 Bft)
18.11.2012 12:10 7,7 C 69 % 0,0 l/m 1,4 km/h (1 Bft) SO 135 2,4 C 13,7 C 1,6 km/h (1 Bft)
18.11.2012 12:15 7,7 C 70 % 0,0 l/m 2,1 km/h (1 Bft) O-SO 112 2,6 C 13,3 C 3,2 km/h (1 Bft)
18.11.2012 12:20 7,8 C 70 % 0,0 l/m 1,8 km/h (1 Bft) SO 135 2,7 C 12,5 C 3,4 km/h (1 Bft)
18.11.2012 12:25 7,8 C 70 % 0,0 l/m 2,1 km/h (1 Bft) O-SO 112 2,7 C 12,1 C 3,5 km/h (1 Bft)
18.11.2012 12:30 8,0 C 70 % 0,0 l/m 2,6 km/h (1 Bft) SO 135 2,9 C 11,7 C 4,7 km/h (1 Bft)
18.11.2012 12:35 8,2 C 69 % 0,0 l/m 1,6 km/h (1 Bft) SO 135 2,9 C 11,6 C 0,0 km/h (0 Bft)
18.11.2012 12:40 8,2 C 69 % 0,0 l/m 0,2 km/h (0 Bft) SO 135 2,9 C 11,4 C 0,0 km/h (0 Bft)
18.11.2012 12:45 8,4 C 69 % 0,0 l/m 0,0 km/h (0 Bft) SO 135 3,0 C 11,3 C 0,0 km/h (0 Bft)
18.11.2012 12:50 8,5 C 69 % 0,0 l/m 0,0 km/h (0 Bft) S 180 3,1 C 11,3 C 0,0 km/h (0 Bft)
18.11.2012 12:55 8,5 C 68 % 0,0 l/m 0,3 km/h (0 Bft) S 180 2,9 C 11,4 C 0,0 km/h (0 Bft)
18.11.2012 13:00 8,6 C 69 % 0,0 l/m 0,3 km/h (0 Bft) W-SW 247 3,2 C 11,7 C 0,0 km/h (0 Bft)
18.11.2012 13:05 8,7 C 69 % 0,0 l/m 0,3 km/h (0 Bft) W-SW 247 3,3 C 11,9 C 3,9 km/h (1 Bft)
18.11.2012 13:10 8,7 C 68 % 0,0 l/m 0,6 km/h (0 Bft) W-NW 292 3,1 C 11,8 C 0,0 km/h (0 Bft)
18.11.2012 13:15 8,7 C 67 % 0,0 l/m 1,0 km/h (0 Bft) W-SW 247 2,9 C 11,7 C 4,0 km/h (1 Bft)
18.11.2012 13:20 9,0 C 65 % 0,0 l/m 1,1 km/h (1 Bft) S-SW 202 2,8 C 11,4 C 2,1 km/h (1 Bft)
18.11.2012 13:25 9,0 C 65 % 0,0 l/m 1,3 km/h (1 Bft) W 270 2,8 C 11,3 C 2,3 km/h (1 Bft)
18.11.2012 13:30 9,0 C 65 % 0,0 l/m 0,6 km/h (0 Bft) SO 135 2,8 C 11,2 C 3,1 km/h (1 Bft)
18.11.2012 13:35 8,9 C 66 % 0,0 l/m 1,0 km/h (0 Bft) W-NW 292 2,9 C 11,1 C 0,0 km/h (0 Bft)
18.11.2012 13:40 8,9 C 67 % 0,0 l/m 0,8 km/h (0 Bft) W 270 3,1 C 11,0 C 1,9 km/h (1 Bft)
18.11.2012 13:45 8,9 C 68 % 0,0 l/m 0,2 km/h (0 Bft) W-NW 292 3,3 C 10,8 C 0,0 km/h (0 Bft)
18.11.2012 13:50 8,9 C 68 % 0,0 l/m 0,5 km/h (0 Bft) W-NW 292 3,3 C 10,7 C 1,6 km/h (1 Bft)
18.11.2012 13:55 8,8 C 69 % 0,0 l/m 0,5 km/h (0 Bft) W-NW 292 3,4 C 10,6 C 2,1 km/h (1 Bft)
18.11.2012 14:00 8,7 C 69 % 0,0 l/m 0,6 km/h (0 Bft) W-NW 292 3,3 C 10,5 C 0,0 km/h (0 Bft)
18.11.2012 14:05 8,7 C 70 % 0,0 l/m 0,6 km/h (0 Bft) W-NW 292 3,5 C 10,5 C 2,6 km/h (1 Bft)
18.11.2012 14:10 8,8 C 70 % 0,0 l/m 1,4 km/h (1 Bft) W-NW 292 3,6 C 10,4 C 3,4 km/h (1 Bft)
18.11.2012 14:15 8,7 C 70 % 0,0 l/m 2,3 km/h (1 Bft) W-NW 292 3,5 C 10,3 C 3,4 km/h (1 Bft)
18.11.2012 14:20 8,7 C 70 % 0,0 l/m 2,3 km/h (1 Bft) W-NW 292 3,5 C 10,2 C 3,1 km/h (1 Bft)
18.11.2012 14:25 8,6 C 70 % 0,0 l/m 2,1 km/h (1 Bft) NW 315 3,4 C 10,2 C 2,7 km/h (1 Bft)
18.11.2012 14:30 8,4 C 72 % 0,0 l/m 2,1 km/h (1 Bft) W-NW 292 3,7 C 10,0 C 3,5 km/h (1 Bft)
18.11.2012 14:35 8,3 C 73 % 0,0 l/m 2,1 km/h (1 Bft) W-NW 292 3,8 C 10,0 C 3,1 km/h (1 Bft)
18.11.2012 14:40 8,2 C 73 % 0,0 l/m 1,8 km/h (1 Bft) W-NW 292 3,7 C 9,9 C 0,0 km/h (0 Bft)
18.11.2012 14:45 8,2 C 73 % 0,0 l/m 1,3 km/h (1 Bft) W-NW 292 3,7 C 9,8 C 1,9 km/h (1 Bft)
18.11.2012 14:50 8,2 C 73 % 0,0 l/m 0,3 km/h (0 Bft) W 270 3,7 C 9,8 C 0,0 km/h (0 Bft)
18.11.2012 14:55 8,1 C 73 % 0,0 l/m 0,3 km/h (0 Bft) W-NW 292 3,6 C 9,7 C 0,0 km/h (0 Bft)
18.11.2012 15:00 8,0 C 73 % 0,0 l/m 0,0 km/h (0 Bft) W-NW 292 3,5 C 9,5 C 0,0 km/h (0 Bft)
18.11.2012 15:05 8,0 C 74 % 0,0 l/m 0,0 km/h (0 Bft) W-NW 292 3,7 C 9,4 C 0,0 km/h (0 Bft)
18.11.2012 15:10 7,9 C 74 % 0,0 l/m 0,0 km/h (0 Bft) W-NW 292 3,6 C 9,2 C 0,0 km/h (0 Bft)
18.11.2012 15:15 7,7 C 74 % 0,0 l/m 0,0 km/h (0 Bft) NW 315 3,4 C 9,0 C 0,0 km/h (0 Bft)
18.11.2012 15:20 7,6 C 75 % 0,0 l/m 0,0 km/h (0 Bft) NW 315 3,5 C 8,8 C 0,0 km/h (0 Bft)
18.11.2012 15:25 7,4 C 75 % 0,0 l/m 0,0 km/h (0 Bft) NW 315 3,3 C 8,5 C 0,0 km/h (0 Bft)
18.11.2012 15:30 7,1 C 75 % 0,0 l/m 0,0 km/h (0 Bft) W-NW 292 3,0 C 8,2 C 0,0 km/h (0 Bft)
18.11.2012 15:35 6,7 C 76 % 0,0 l/m 0,0 km/h (0 Bft) NW 315 2,8 C 8,0 C 0,0 km/h (0 Bft)
18.11.2012 15:40 6,7 C 76 % 0,0 l/m 0,0 km/h (0 Bft) NW 315 2,8 C 7,7 C 0,0 km/h (0 Bft)
18.11.2012 15:45 6,7 C 77 % 0,0 l/m 0,0 km/h (0 Bft) NW 315 3,0 C 7,5 C 0,0 km/h (0 Bft)
18.11.2012 15:50 6,5 C 77 % 0,0 l/m 0,0 km/h (0 Bft) NW 315 2,8 C 7,2 C 0,0 km/h (0 Bft)
18.11.2012 15:55 6,4 C 77 % 0,0 l/m 0,0 km/h (0 Bft) NW 315 2,7 C 7,0 C 0,0 km/h (0 Bft)
18.11.2012 16:00 6,1 C 77 % 0,0 l/m 0,0 km/h (0 Bft) NW 315 2,4 C 6,6 C 0,0 km/h (0 Bft)
18.11.2012 16:05 6,0 C 78 % 0,0 l/m 0,0 km/h (0 Bft) NW 315 2,5 C 6,4 C 0,0 km/h (0 Bft)
18.11.2012 16:10 5,9 C 78 % 0,0 l/m 0,0 km/h (0 Bft) NW 315 2,4 C 6,1 C 0,0 km/h (0 Bft)
18.11.2012 16:15 5,6 C 78 % 0,0 l/m 0,0 km/h (0 Bft) W-NW 292 2,1 C 5,9 C 0,0 km/h (0 Bft)
18.11.2012 16:20 5,5 C 79 % 0,0 l/m 0,0 km/h (0 Bft) N 360 2,2 C 5,6 C 0,0 km/h (0 Bft)
18.11.2012 16:25 5,7 C 79 % 0,0 l/m 0,0 km/h (0 Bft) O-NO 67 2,3 C 5,6 C 0,0 km/h (0 Bft)
18.11.2012 16:30 5,3 C 79 % 0,0 l/m 0,0 km/h (0 Bft) N-NO 22 2,0 C 5,3 C 0,0 km/h (0 Bft)
18.11.2012 16:35 5,1 C 79 % 0,0 l/m 0,0 km/h (0 Bft) NO 45 1,8 C 5,2 C 0,0 km/h (0 Bft)
18.11.2012 16:40 4,9 C 80 % 0,0 l/m 0,0 km/h (0 Bft) N-NO 22 1,7 C 4,7 C 0,0 km/h (0 Bft)
18.11.2012 16:45 5,0 C 80 % 0,0 l/m 0,0 km/h (0 Bft) N-NO 22 1,8 C 4,5 C 0,0 km/h (0 Bft)
18.11.2012 16:50 5,1 C 81 % 0,0 l/m 0,0 km/h (0 Bft) N-NO 22 2,1 C 4,4 C 0,0 km/h (0 Bft)
18.11.2012 16:55 5,1 C 81 % 0,0 l/m 0,0 km/h (0 Bft) NO 45 2,1 C 4,5 C 0,0 km/h (0 Bft)
18.11.2012 17:00 4,0 C 81 % 0,0 l/m 0,0 km/h (0 Bft) N 360 1,0 C 4,1 C 0,0 km/h (0 Bft)
18.11.2012 17:05 4,4 C 82 % 0,0 l/m 0,0 km/h (0 Bft) N 360 1,6 C 3,7 C 0,0 km/h (0 Bft)
18.11.2012 17:10 4,6 C 83 % 0,0 l/m 0,0 km/h (0 Bft) N-NO 22 2,0 C 3,6 C 0,0 km/h (0 Bft)
18.11.2012 17:15 4,6 C 83 % 0,0 l/m 0,0 km/h (0 Bft) N-NO 22 2,0 C 3,6 C 0,0 km/h (0 Bft)
18.11.2012 17:20 4,7 C 83 % 0,0 l/m 0,0 km/h (0 Bft) NO 45 2,1 C 3,6 C 0,0 km/h (0 Bft)
18.11.2012 17:25 4,6 C 83 % 0,0 l/m 0,0 km/h (0 Bft) O 90 2,0 C 3,4 C 0,0 km/h (0 Bft)
18.11.2012 17:30 3,5 C 82 % 0,0 l/m 0,0 km/h (0 Bft) O-NO 67 0,7 C 3,1 C 0,0 km/h (0 Bft)
18.11.2012 17:35 3,0 C 82 % 0,0 l/m 0,0 km/h (0 Bft) N 360 0,2 C 2,7 C 0,0 km/h (0 Bft)
18.11.2012 17:40 3,5 C 84 % 0,0 l/m 0,2 km/h (0 Bft) NO 45 1,1 C 2,4 C 2,4 km/h (1 Bft)
18.11.2012 17:45 3,7 C 85 % 0,0 l/m 0,3 km/h (0 Bft) NO 45 1,4 C 2,5 C 0,0 km/h (0 Bft)
18.11.2012 17:50 3,1 C 84 % 0,0 l/m 0,3 km/h (0 Bft) N-NW 337 0,7 C 2,5 C 0,0 km/h (0 Bft)
18.11.2012 17:55 2,7 C 85 % 0,0 l/m 0,0 km/h (0 Bft) N-NO 22 0,4 C 2,1 C 0,0 km/h (0 Bft)
18.11.2012 18:00 2,5 C 85 % 0,0 l/m 0,0 km/h (0 Bft) NO 45 0,2 C 1,8 C 0,0 km/h (0 Bft)
18.11.2012 18:05 3,1 C 86 % 0,0 l/m 0,0 km/h (0 Bft) NO 45 1,0 C 1,9 C 0,0 km/h (0 Bft)
18.11.2012 18:10 2,3 C 86 % 0,0 l/m 0,0 km/h (0 Bft) O 90 0,2 C 1,7 C 0,0 km/h (0 Bft)
18.11.2012 18:15 2,5 C 86 % 0,0 l/m 0,2 km/h (0 Bft) N 360 0,4 C 1,5 C 0,0 km/h (0 Bft)
18.11.2012 18:20 2,9 C 87 % 0,0 l/m 0,0 km/h (0 Bft) NO 45 1,0 C 1,6 C 0,0 km/h (0 Bft)
18.11.2012 18:25 2,7 C 87 % 0,0 l/m 0,0 km/h (0 Bft) N-NO 22 0,8 C 1,5 C 0,0 km/h (0 Bft)
18.11.2012 18:30 2,5 C 87 % 0,0 l/m 0,5 km/h (0 Bft) N 360 0,6 C 1,4 C 2,7 km/h (1 Bft)
18.11.2012 18:35 2,6 C 88 % 0,0 l/m 0,5 km/h (0 Bft) NO 45 0,8 C 1,4 C 0,0 km/h (0 Bft)
18.11.2012 18:40 2,7 C 88 % 0,0 l/m 0,3 km/h (0 Bft) N 360 0,9 C 1,5 C 0,0 km/h (0 Bft)
18.11.2012 18:45 2,7 C 88 % 0,0 l/m 0,0 km/h (0 Bft) N-NO 22 0,9 C 1,5 C 0,0 km/h (0 Bft)
18.11.2012 18:50 2,4 C 88 % 0,0 l/m 0,0 km/h (0 Bft) O-NO 67 0,6 C 1,3 C 0,0 km/h (0 Bft)
18.11.2012 18:55 1,9 C 88 % 0,0 l/m 0,0 km/h (0 Bft) N-NO 22 0,1 C 1,1 C 1,9 km/h (1 Bft)
18.11.2012 19:00 2,3 C 88 % 0,0 l/m 0,0 km/h (0 Bft) S-SO 157 0,5 C 1,1 C 0,0 km/h (0 Bft)
18.11.2012 19:05 2,1 C 89 % 0,0 l/m 0,0 km/h (0 Bft) N 360 0,5 C 1,1 C 2,1 km/h (1 Bft)
18.11.2012 19:10 2,3 C 89 % 0,0 l/m 0,2 km/h (0 Bft) NO 45 0,7 C 1,1 C 0,0 km/h (0 Bft)
18.11.2012 19:15 1,7 C 89 % 0,0 l/m 0,2 km/h (0 Bft) NO 45 0,1 C 1,1 C 0,0 km/h (0 Bft)
18.11.2012 19:20 1,1 C 88 % 0,0 l/m 0,0 km/h (0 Bft) NO 45 -0,7 C 0,7 C 0,0 km/h (0 Bft)
18.11.2012 19:25 0,8 C 89 % 0,0 l/m 0,0 km/h (0 Bft) NO 45 -0,8 C 0,4 C 0,0 km/h (0 Bft)
18.11.2012 19:30 1,0 C 89 % 0,0 l/m 0,0 km/h (0 Bft) N-NO 22 -0,6 C 0,1 C 1,8 km/h (1 Bft)
18.11.2012 19:35 1,5 C 89 % 0,0 l/m 0,2 km/h (0 Bft) N-NO 22 -0,1 C 0,3 C 0,0 km/h (0 Bft)
18.11.2012 19:40 0,9 C 89 % 0,0 l/m 0,2 km/h (0 Bft) N 360 -0,7 C 0,5 C 0,0 km/h (0 Bft)
18.11.2012 19:45 0,7 C 89 % 0,0 l/m 0,0 km/h (0 Bft) N 360 -0,9 C 0,3 C 0,0 km/h (0 Bft)
18.11.2012 19:50 0,5 C 89 % 0,0 l/m 0,0 km/h (0 Bft) O-NO 67 -1,1 C -0,1 C 0,0 km/h (0 Bft)
18.11.2012 19:55 0,5 C 89 % 0,0 l/m 0,0 km/h (0 Bft) N-NO 22 -1,1 C -0,3 C 0,0 km/h (0 Bft)
18.11.2012 20:00 0,6 C 90 % 0,0 l/m 0,0 km/h (0 Bft) O-NO 67 -0,8 C -0,3 C 0,0 km/h (0 Bft)
18.11.2012 20:05 0,8 C 90 % 0,0 l/m 0,0 km/h (0 Bft) NO 45 -0,6 C -0,2 C 0,0 km/h (0 Bft)
18.11.2012 20:10 0,5 C 90 % 0,0 l/m 0,0 km/h (0 Bft) NO 45 -0,9 C 0,0 C 0,0 km/h (0 Bft)
18.11.2012 20:15 0,5 C 91 % 0,0 l/m 0,0 km/h (0 Bft) O 90 -0,8 C 0,0 C 0,0 km/h (0 Bft)
18.11.2012 20:20 0,1 C 90 % 0,0 l/m 0,0 km/h (0 Bft) O 90 -1,3 C -0,1 C 0,0 km/h (0 Bft)
18.11.2012 20:25 0,0 C 90 % 0,0 l/m 0,0 km/h (0 Bft) N-NO 22 -1,4 C -0,2 C 0,0 km/h (0 Bft)
18.11.2012 20:30 0,2 C 91 % 0,0 l/m 0,3 km/h (0 Bft) N 360 -1,1 C -0,5 C 0,0 km/h (0 Bft)
18.11.2012 20:35 0,1 C 91 % 0,0 l/m 0,2 km/h (0 Bft) N 360 -1,2 C -0,5 C 0,0 km/h (0 Bft)
18.11.2012 20:40 1,1 C 92 % 0,0 l/m 0,0 km/h (0 Bft) N 360 -0,1 C -0,3 C 0,0 km/h (0 Bft)
18.11.2012 20:45 1,2 C 92 % 0,0 l/m 0,0 km/h (0 Bft) O 90 0,0 C 0,1 C 0,0 km/h (0 Bft)
18.11.2012 20:50 -0,1 C 92 % 0,0 l/m 0,0 km/h (0 Bft) N-NO 22 -1,2 C -0,2 C 0,0 km/h (0 Bft)
18.11.2012 20:55 0,4 C 92 % 0,0 l/m 0,0 km/h (0 Bft) N 360 -0,7 C -0,4 C 0,0 km/h (0 Bft)
18.11.2012 21:00 1,2 C 92 % 0,0 l/m 0,2 km/h (0 Bft) N-NO 22 0,0 C 0,0 C 0,0 km/h (0 Bft)
18.11.2012 21:05 1,5 C 93 % 0,0 l/m 0,0 km/h (0 Bft) O-NO 67 0,5 C 0,3 C 0,0 km/h (0 Bft)
18.11.2012 21:10 0,5 C 92 % 0,0 l/m 0,0 km/h (0 Bft) S-SW 202 -0,6 C 0,3 C 0,0 km/h (0 Bft)
18.11.2012 21:15 0,2 C 92 % 0,0 l/m 0,0 km/h (0 Bft) S-SW 202 -0,9 C 0,1 C 0,0 km/h (0 Bft)
18.11.2012 21:20 0,8 C 92 % 0,0 l/m 0,0 km/h (0 Bft) N-NO 22 -0,3 C -0,2 C 0,0 km/h (0 Bft)
18.11.2012 21:25 1,2 C 93 % 0,0 l/m 0,0 km/h (0 Bft) N 360 0,2 C 0,1 C 0,0 km/h (0 Bft)
18.11.2012 21:30 0,4 C 93 % 0,0 l/m 0,0 km/h (0 Bft) N-NW 337 -0,6 C 0,1 C 0,0 km/h (0 Bft)
18.11.2012 21:35 0,1 C 92 % 0,0 l/m 0,0 km/h (0 Bft) NO 45 -1,0 C -0,2 C 0,0 km/h (0 Bft)
18.11.2012 21:40 0,0 C 92 % 0,0 l/m 0,0 km/h (0 Bft) NO 45 -1,1 C -0,6 C 0,0 km/h (0 Bft)
18.11.2012 21:45 -0,4 C 92 % 0,0 l/m 0,0 km/h (0 Bft) NO 45 -1,5 C -0,9 C 0,0 km/h (0 Bft)
18.11.2012 21:50 -0,5 C 92 % 0,0 l/m 0,0 km/h (0 Bft) N-NO 22 -1,6 C -1,1 C 0,0 km/h (0 Bft)
18.11.2012 21:55 -0,6 C 92 % 0,0 l/m 0,0 km/h (0 Bft) N 360 -1,7 C -1,0 C 0,0 km/h (0 Bft)
18.11.2012 22:00 -0,3 C 92 % 0,0 l/m 0,0 km/h (0 Bft) N-NO 22 -1,4 C -1,1 C 0,0 km/h (0 Bft)
18.11.2012 22:05 -0,4 C 92 % 0,0 l/m 0,0 km/h (0 Bft) NO 45 -1,5 C -1,1 C 0,0 km/h (0 Bft)
18.11.2012 22:10 -0,4 C 92 % 0,0 l/m 0,0 km/h (0 Bft) N-NO 22 -1,5 C -1,1 C 0,0 km/h (0 Bft)
18.11.2012 22:15 -0,2 C 92 % 0,0 l/m 0,0 km/h (0 Bft) NO 45 -1,3 C -1,1 C 0,0 km/h (0 Bft)
18.11.2012 22:20 -0,7 C 92 % 0,0 l/m 0,0 km/h (0 Bft) NO 45 -1,8 C -1,1 C 0,0 km/h (0 Bft)
18.11.2012 22:25 -0,8 C 92 % 0,0 l/m 0,0 km/h (0 Bft) NO 45 -1,9 C -1,2 C 0,0 km/h (0 Bft)
18.11.2012 22:30 -0,7 C 92 % 0,0 l/m 0,0 km/h (0 Bft) O 90 -1,8 C -1,2 C 0,0 km/h (0 Bft)
18.11.2012 22:35 -0,8 C 92 % 0,0 l/m 0,0 km/h (0 Bft) N 360 -1,9 C -1,3 C 0,0 km/h (0 Bft)
18.11.2012 22:40 -0,8 C 92 % 0,0 l/m 0,0 km/h (0 Bft) W 270 -1,9 C -1,4 C 0,0 km/h (0 Bft)
18.11.2012 22:45 -0,7 C 92 % 0,0 l/m 0,0 km/h (0 Bft) N-NW 337 -1,8 C -1,3 C 0,0 km/h (0 Bft)
18.11.2012 22:50 -0,5 C 92 % 0,0 l/m 0,0 km/h (0 Bft) N-NO 22 -1,6 C -1,1 C 0,0 km/h (0 Bft)
18.11.2012 22:55 0,1 C 93 % 0,0 l/m 0,0 km/h (0 Bft) N-NO 22 -0,9 C -0,6 C 0,0 km/h (0 Bft)
18.11.2012 23:00 0,4 C 93 % 0,0 l/m 0,0 km/h (0 Bft) SO 135 -0,6 C -0,2 C 0,0 km/h (0 Bft)
18.11.2012 23:05 -0,1 C 93 % 0,0 l/m 0,0 km/h (0 Bft) SO 135 -1,1 C -0,3 C 0,0 km/h (0 Bft)
18.11.2012 23:10 -0,2 C 93 % 0,0 l/m 0,0 km/h (0 Bft) N-NO 22 -1,2 C -0,7 C 0,0 km/h (0 Bft)
18.11.2012 23:15 -0,3 C 93 % 0,0 l/m 0,0 km/h (0 Bft) N-NO 22 -1,3 C -0,8 C 0,0 km/h (0 Bft)
18.11.2012 23:20 -0,6 C 93 % 0,0 l/m 0,0 km/h (0 Bft) S 180 -1,6 C -0,9 C 0,0 km/h (0 Bft)
18.11.2012 23:25 -0,5 C 93 % 0,0 l/m 0,0 km/h (0 Bft) O 90 -1,5 C -1,1 C 0,0 km/h (0 Bft)
18.11.2012 23:30 -0,6 C 93 % 0,0 l/m 0,0 km/h (0 Bft) SO 135 -1,6 C -1,1 C 0,0 km/h (0 Bft)
18.11.2012 23:35 -0,5 C 93 % 0,0 l/m 0,0 km/h (0 Bft) S-SW 202 -1,5 C -1,0 C 0,0 km/h (0 Bft)
18.11.2012 23:40 -0,3 C 93 % 0,0 l/m 0,0 km/h (0 Bft) W-NW 292 -1,3 C -0,8 C 0,0 km/h (0 Bft)
18.11.2012 23:45 -0,3 C 93 % 0,0 l/m 0,0 km/h (0 Bft) S-SW 202 -1,3 C -0,8 C 0,0 km/h (0 Bft)
18.11.2012 23:50 -0,4 C 93 % 0,0 l/m 0,0 km/h (0 Bft) N-NO 22 -1,4 C -0,8 C 0,0 km/h (0 Bft)
18.11.2012 23:55 -0,3 C 93 % 0,0 l/m 0,0 km/h (0 Bft) O 90 -1,3 C -0,9 C 0,0 km/h (0 Bft)
_ Min-Zeit 02:30 11:20 - 23:55 - - 02:30 01:25 23:55
Minimum _ -2,3 C 64 % - 0,0 km/h (0 Bft) - - -3,6 C -3,1 C 0,0 km/h (0 Bft)
_ Max-Zeit 13:30 23:55 23:55 12:30 - - 14:35 11:40 12:30
Maximum _ 9,0 C 93 % 0,0 l/m 2,6 km/h
SO (1 Bft)
- - 3,8 C 15,2 C 4,7 km/h
SO (1 Bft)
Durchschnitt _ 2,3 C 84 % #0,0 l/m 0,2 km/h (0 Bft) W-NW - -0,2 C 2,9 C 0,4 km/h (0 Bft)